Terminal Aerodrome Forecast
Issued by NWS Chicago, IL

Home | Current Version | Previous Version | Graphics & Text | Print | Product List | Glossary On
Versions: 1 2 3 4 5 6 7 8 9 10 11 12 13 14 15 16 17 18 19 20 21 22 23 24 25 26 27 28 29 30 31 32 33 34 35 36 37
000
FTUS43 KLOT 291100
TAFRFD
TAF
KRFD 291134Z 2912/3012 17005KT 3SM SHRA BR SCT050 BKN080
     FM291500 18010KT P6SM VCTS SCT035CB BKN060
     FM291700 19013G20KT P6SM VCSH SCT035 BKN050
     FM300100 18010KT P6SM VCTS SCT035CB OVC050 PROB30 3002/3006 4SM
      TSRA BR BKN035CB
     FM300800 22012KT 4SM -SHRA BR BKN025 OVC050=

USA.gov is the U.S. government's official web portal to all federal, state and local government web resources and services.